Time;durP1;ratioP1;P1;durP2;ratioP2;P2;SDS_P1;SDS_P2;PMS_P1;PMS_P2;Temp;Humidity;BMP_temperature;BMP_pressure;BME280_temperature;BME280_humidity;BME280_pressure;Samples;Min_cycle;Max_cycle;Signal;HPM_P1;HPM_P2
2021/11/24 00:00:14;;;;;;;12.00;9.05;;;-0.60;99.90;;;;;;5054446;28;20017;-79
2021/11/24 00:02:39;;;;;;;10.55;8.27;;;-0.60;99.90;;;;;;5056014;28;20022;-78
2021/11/24 00:05:06;;;;;;;12.75;8.85;;;-0.50;99.90;;;;;;5055781;28;20029;-79
2021/11/24 00:07:31;;;;;;;12.85;9.73;;;-0.50;99.90;;;;;;5056841;28;20033;-79
2021/11/24 00:09:58;;;;;;;15.00;9.55;;;-0.60;99.90;;;;;;5052574;28;20025;-78
2021/11/24 00:12:23;;;;;;;19.40;10.30;;;-0.60;99.90;;;;;;5047151;28;20034;-78
2021/11/24 00:14:49;;;;;;;13.90;11.02;;;-0.70;99.90;;;;;;5045109;28;20026;-80
2021/11/24 00:17:16;;;;;;;15.05;10.93;;;-0.70;99.90;;;;;;5041681;28;20028;-78
2021/11/24 00:19:42;;;;;;;12.18;9.57;;;-0.60;99.90;;;;;;5056378;28;20101;-79
2021/11/24 00:22:08;;;;;;;15.55;10.68;;;-0.60;99.90;;;;;;5056110;28;20025;-79
2021/11/24 00:24:33;;;;;;;16.98;11.27;;;-0.70;99.90;;;;;;5048286;28;20477;-78
2021/11/24 00:26:59;;;;;;;20.30;11.25;;;-0.70;99.90;;;;;;5050422;28;20021;-79
2021/11/24 00:29:25;;;;;;;18.85;12.70;;;-0.70;99.90;;;;;;5048467;28;20042;-78
2021/11/24 00:31:50;;;;;;;16.38;11.65;;;-0.70;99.90;;;;;;5054022;28;20025;-81
2021/11/24 00:34:16;;;;;;;13.48;10.05;;;-0.80;99.90;;;;;;5055147;28;20026;-79
2021/11/24 00:36:41;;;;;;;15.70;10.70;;;-0.80;99.90;;;;;;5033445;28;20037;-79
2021/11/24 00:39:07;;;;;;;15.27;11.77;;;-0.80;99.90;;;;;;5045672;28;20036;-81
2021/11/24 00:41:32;;;;;;;15.52;10.38;;;-0.90;99.90;;;;;;5048177;28;20025;-78
2021/11/24 00:43:58;;;;;;;16.08;11.88;;;-0.90;99.90;;;;;;5048064;28;20052;-80
2021/11/24 00:46:24;;;;;;;16.92;10.88;;;-0.90;99.90;;;;;;5047247;28;20053;-78
2021/11/24 00:48:49;;;;;;;14.45;10.80;;;-0.90;99.90;;;;;;5042491;28;20026;-79
2021/11/24 00:51:15;;;;;;;19.85;11.90;;;-1.00;99.90;;;;;;5043829;28;20025;-80
2021/11/24 00:53:40;;;;;;;15.75;11.77;;;-1.00;99.90;;;;;;5041059;28;20014;-79
2021/11/24 00:56:06;;;;;;;13.18;11.13;;;-0.90;99.90;;;;;;5051060;28;20052;-78
2021/11/24 00:58:32;;;;;;;16.17;10.73;;;-1.00;99.90;;;;;;5049224;28;20029;-78
2021/11/24 01:00:57;;;;;;;12.43;9.90;;;-1.00;99.90;;;;;;5049831;28;20036;-80
2021/11/24 01:03:23;;;;;;;13.18;10.32;;;-1.00;99.90;;;;;;5050583;28;20085;-80
2021/11/24 01:05:48;;;;;;;14.45;10.65;;;-1.00;99.90;;;;;;5050552;28;20022;-80
2021/11/24 01:08:16;;;;;;;20.95;11.30;;;-1.00;99.90;;;;;;5049318;28;20469;-79
2021/11/24 01:10:42;;;;;;;14.98;11.13;;;-1.00;99.90;;;;;;5044856;28;20041;-80
2021/11/24 01:13:09;;;;;;;15.05;10.70;;;-1.00;99.90;;;;;;5041148;28;20018;-78
2021/11/24 01:15:35;;;;;;;15.32;11.50;;;-1.00;99.90;;;;;;5043845;28;20049;-79
2021/11/24 01:18:01;;;;;;;14.65;10.65;;;-1.00;99.90;;;;;;5043404;28;20378;-79
2021/11/24 01:20:26;;;;;;;12.88;9.93;;;-1.00;99.90;;;;;;5047207;28;20105;-79
2021/11/24 01:22:52;;;;;;;17.10;10.80;;;-1.10;99.90;;;;;;5041060;28;20033;-79
2021/11/24 01:25:17;;;;;;;13.93;10.30;;;-1.10;99.90;;;;;;5039355;28;20443;-80
2021/11/24 01:27:43;;;;;;;13.77;10.27;;;-1.10;99.90;;;;;;5041312;28;20017;-79
2021/11/24 01:30:12;;;;;;;15.30;11.18;;;-1.20;99.90;;;;;;5040689;28;20022;-79
2021/11/24 01:32:38;;;;;;;12.65;9.43;;;-1.10;99.90;;;;;;5043039;28;20044;-80
2021/11/24 01:35:05;;;;;;;16.27;10.00;;;-1.10;99.90;;;;;;5042896;28;20035;-79
2021/11/24 01:37:31;;;;;;;13.13;10.75;;;-1.10;99.90;;;;;;5039599;28;20030;-80
2021/11/24 01:39:57;;;;;;;11.80;9.77;;;-1.10;99.90;;;;;;5038014;28;20103;-79
2021/11/24 01:42:22;;;;;;;13.27;9.43;;;-1.10;99.90;;;;;;5039115;28;20026;-79
2021/11/24 01:44:48;;;;;;;15.23;11.60;;;-1.10;99.90;;;;;;5039744;28;20040;-81
2021/11/24 01:47:14;;;;;;;12.90;10.00;;;-1.20;99.90;;;;;;5037647;28;20048;-79
2021/11/24 01:49:40;;;;;;;11.82;9.25;;;-1.20;99.90;;;;;;5040074;28;20022;-79
2021/11/24 01:52:06;;;;;;;10.13;9.13;;;-1.20;99.90;;;;;;5042221;28;20025;-79
2021/11/24 01:54:31;;;;;;;13.32;9.40;;;-1.20;99.90;;;;;;5039859;28;20025;-79
2021/11/24 01:56:58;;;;;;;15.27;9.40;;;-1.30;99.90;;;;;;5038911;28;20029;-80
2021/11/24 01:59:24;;;;;;;10.50;9.40;;;-1.30;99.90;;;;;;5042334;28;20032;-80
2021/11/24 02:01:51;;;;;;;14.52;8.70;;;-1.30;99.90;;;;;;5041775;28;20018;-79
2021/11/24 02:04:17;;;;;;;10.35;8.27;;;-1.30;99.90;;;;;;5040041;28;20029;-80
2021/11/24 02:06:44;;;;;;;10.40;8.05;;;-1.20;99.90;;;;;;5041528;28;20055;-79
2021/11/24 02:09:12;;;;;;;11.48;8.50;;;-1.30;99.90;;;;;;5039633;28;20440;-80
2021/11/24 02:11:39;;;;;;;12.18;9.13;;;-1.20;99.90;;;;;;5040628;28;20044;-80
2021/11/24 02:14:07;;;;;;;11.80;9.50;;;-1.20;99.90;;;;;;5040070;28;20079;-79
2021/11/24 02:16:39;;;;;;;13.05;8.82;;;-1.20;99.90;;;;;;5050606;28;20088;-79
2021/11/24 02:19:05;;;;;;;12.93;8.23;;;-1.10;99.90;;;;;;5050329;28;20026;-79
2021/11/24 02:21:30;;;;;;;9.48;8.48;;;-1.10;99.90;;;;;;5041944;28;20040;-79
2021/11/24 02:23:56;;;;;;;11.95;9.18;;;-1.20;99.90;;;;;;5041341;28;20026;-80
2021/11/24 02:26:22;;;;;;;9.88;8.60;;;-1.20;99.90;;;;;;5043611;28;20036;-80
2021/11/24 02:28:49;;;;;;;9.10;8.20;;;-1.20;99.90;;;;;;5048496;28;20026;-80
2021/11/24 02:31:23;;;;;;;9.27;8.25;;;-1.30;99.90;;;;;;5055578;28;20009;-79
2021/11/24 02:33:54;;;;;;;9.48;7.10;;;-1.20;99.90;;;;;;5056851;28;20014;-80
2021/11/24 02:36:20;;;;;;;12.18;9.15;;;-1.30;99.90;;;;;;5057670;28;20014;-79
2021/11/24 02:38:46;;;;;;;12.85;7.72;;;-1.30;99.90;;;;;;5048251;28;20025;-77
2021/11/24 02:41:12;;;;;;;10.60;8.60;;;-1.50;99.90;;;;;;5048280;28;20026;-78
2021/11/24 02:43:38;;;;;;;15.63;8.95;;;-1.40;99.90;;;;;;5046853;28;20025;-79
2021/11/24 02:46:04;;;;;;;11.40;8.52;;;-1.40;99.90;;;;;;5045142;28;20029;-79
2021/11/24 02:48:31;;;;;;;16.95;8.15;;;-1.40;99.90;;;;;;5044686;28;20079;-79
2021/11/24 02:50:57;;;;;;;12.57;8.18;;;-1.40;99.90;;;;;;5038644;28;20075;-78
2021/11/24 02:53:28;;;;;;;11.38;8.15;;;-1.40;99.90;;;;;;5037658;28;20039;-79
2021/11/24 02:55:55;;;;;;;10.70;8.07;;;-1.40;99.90;;;;;;5037811;28;20022;-80
2021/11/24 02:58:21;;;;;;;13.00;9.48;;;-1.30;99.90;;;;;;5037660;28;20095;-78
2021/11/24 03:00:48;;;;;;;10.20;8.70;;;-1.30;99.90;;;;;;5039021;28;20484;-79
2021/11/24 03:03:13;;;;;;;12.57;8.60;;;-1.20;99.90;;;;;;5056625;28;20037;-79
2021/11/24 03:05:39;;;;;;;14.20;9.98;;;-1.20;99.90;;;;;;5053688;28;20105;-78
2021/11/24 03:08:05;;;;;;;14.15;9.50;;;-1.10;99.90;;;;;;5047923;28;20045;-78
2021/11/24 03:10:32;;;;;;;14.48;9.20;;;-1.10;99.90;;;;;;5046246;28;20435;-78
2021/11/24 03:12:59;;;;;;;13.45;10.55;;;-1.20;99.90;;;;;;5042675;28;20032;-80
2021/11/24 03:15:24;;;;;;;13.77;9.55;;;-1.30;99.90;;;;;;5044996;28;20034;-78
2021/11/24 03:17:50;;;;;;;16.33;9.65;;;-1.30;99.90;;;;;;5046013;28;20563;-79
2021/11/24 03:20:16;;;;;;;14.05;9.57;;;-1.40;99.90;;;;;;5051367;28;20025;-80
2021/11/24 03:22:42;;;;;;;14.70;10.80;;;-1.40;99.90;;;;;;5050869;28;20029;-79
2021/11/24 03:25:09;;;;;;;12.95;10.57;;;-1.40;99.90;;;;;;5047258;28;20099;-80
2021/11/24 03:27:38;;;;;;;15.95;9.82;;;-1.40;99.90;;;;;;5048939;28;20428;-79
2021/11/24 03:30:14;;;;;;;13.68;9.52;;;-1.50;99.90;;;;;;5051484;28;20057;-79
2021/11/24 03:32:40;;;;;;;13.55;10.05;;;-1.50;99.90;;;;;;5053346;28;20044;-79
2021/11/24 03:35:06;;;;;;;13.32;9.45;;;-1.50;99.90;;;;;;5053543;28;20052;-78
2021/11/24 03:37:33;;;;;;;14.85;9.57;;;-1.50;99.90;;;;;;5049559;28;20030;-81
2021/11/24 03:39:58;;;;;;;11.80;10.35;;;-1.40;99.90;;;;;;5050502;28;20041;-79
2021/11/24 03:42:24;;;;;;;16.40;9.85;;;-1.40;99.90;;;;;;5051947;28;20037;-79
2021/11/24 03:44:50;;;;;;;13.23;10.20;;;-1.40;99.90;;;;;;5054546;28;20039;-79
2021/11/24 03:47:16;;;;;;;15.43;11.35;;;-1.50;99.90;;;;;;5054102;28;20044;-79
2021/11/24 03:49:42;;;;;;;15.40;10.85;;;-1.50;99.90;;;;;;5050362;28;20026;-79
2021/11/24 03:52:08;;;;;;;16.95;11.00;;;-1.50;99.90;;;;;;5045920;28;20021;-79
2021/11/24 03:54:34;;;;;;;10.98;9.68;;;-1.50;99.90;;;;;;5053413;28;20040;-80
2021/11/24 03:57:00;;;;;;;12.90;9.95;;;-1.50;99.90;;;;;;5053134;28;20086;-79
2021/11/24 03:59:25;;;;;;;13.85;10.68;;;-1.60;99.90;;;;;;5052158;28;20038;-79
2021/11/24 04:01:51;;;;;;;11.35;9.45;;;-1.60;99.90;;;;;;5056076;28;20025;-78
2021/11/24 04:04:16;;;;;;;13.68;10.27;;;-1.50;99.90;;;;;;5054480;28;20025;-79
2021/11/24 04:06:42;;;;;;;16.35;10.85;;;-1.50;99.90;;;;;;5053947;28;20064;-79
2021/11/24 04:09:08;;;;;;;14.90;10.57;;;-1.60;99.90;;;;;;5047000;28;20025;-78
2021/11/24 04:11:34;;;;;;;12.48;10.05;;;-1.70;99.90;;;;;;5050635;28;20022;-79
2021/11/24 04:13:59;;;;;;;12.18;10.23;;;-1.70;99.90;;;;;;5056435;28;20021;-79
2021/11/24 04:16:25;;;;;;;13.52;10.20;;;-1.70;99.90;;;;;;5060295;22;20508;-72
2021/11/24 04:18:51;;;;;;;11.98;10.45;;;-1.70;99.90;;;;;;5034958;28;20056;-73
2021/11/24 04:21:17;;;;;;;14.35;10.40;;;-1.70;99.90;;;;;;5050800;28;20022;-73
2021/11/24 04:23:44;;;;;;;12.02;10.10;;;-1.80;99.90;;;;;;5035221;28;20121;-73
2021/11/24 04:26:10;;;;;;;11.13;9.55;;;-1.80;99.90;;;;;;5035054;28;20033;-73
2021/11/24 04:28:36;;;;;;;11.60;10.00;;;-1.80;99.90;;;;;;5035225;28;20025;-73
2021/11/24 04:31:05;;;;;;;14.77;10.60;;;-1.80;99.90;;;;;;5034995;28;20022;-73
2021/11/24 04:33:31;;;;;;;10.25;8.75;;;-1.80;99.90;;;;;;5034739;28;20029;-72
2021/11/24 04:35:56;;;;;;;13.75;9.68;;;-1.70;99.90;;;;;;5034612;28;20055;-72
2021/11/24 04:38:22;;;;;;;16.45;10.70;;;-1.70;99.90;;;;;;5034816;28;20026;-73
2021/11/24 04:40:47;;;;;;;12.57;9.43;;;-1.80;99.90;;;;;;5035008;28;20025;-74
2021/11/24 04:43:15;;;;;;;20.85;9.15;;;-1.80;99.90;;;;;;5035103;28;20033;-73
2021/11/24 04:45:41;;;;;;;12.48;9.63;;;-1.80;99.90;;;;;;5033173;28;20025;-73
2021/11/24 04:48:06;;;;;;;14.23;9.90;;;-1.90;99.90;;;;;;5034285;28;20052;-72
2021/11/24 04:50:32;;;;;;;15.93;10.20;;;-1.90;99.90;;;;;;5034725;28;20386;-73
2021/11/24 04:52:58;;;;;;;19.38;10.57;;;-1.90;99.90;;;;;;5034622;28;20473;-72
2021/11/24 04:55:23;;;;;;;13.38;10.02;;;-1.90;99.90;;;;;;5034583;28;20774;-73
2021/11/24 04:57:49;;;;;;;27.30;11.07;;;-1.90;99.90;;;;;;5032419;28;20033;-73
2021/11/24 05:00:18;;;;;;;12.48;10.05;;;-1.90;99.90;;;;;;5038029;28;20078;-72
2021/11/24 05:02:45;;;;;;;15.20;9.60;;;-1.90;99.90;;;;;;5037727;28;20514;-73
2021/11/24 05:05:11;;;;;;;11.85;9.52;;;-1.90;99.90;;;;;;5034138;28;20056;-73
2021/11/24 05:07:37;;;;;;;12.50;9.55;;;-2.00;99.90;;;;;;5040024;28;20034;-74
2021/11/24 05:10:04;;;;;;;18.27;9.57;;;-2.00;99.90;;;;;;5038157;28;20075;-71
2021/11/24 05:12:30;;;;;;;14.95;10.13;;;-2.00;99.90;;;;;;5038751;28;20022;-73
2021/11/24 05:14:56;;;;;;;12.82;9.57;;;-2.00;99.90;;;;;;5034579;28;20030;-73
2021/11/24 05:17:24;;;;;;;13.35;9.98;;;-1.90;99.90;;;;;;5034068;28;20021;-73
2021/11/24 05:19:51;;;;;;;15.18;9.98;;;-1.70;99.90;;;;;;5032383;28;20071;-73
2021/11/24 05:22:18;;;;;;;14.50;9.45;;;-1.70;99.90;;;;;;5033884;28;20014;-73
2021/11/24 05:24:43;;;;;;;11.25;9.25;;;-1.80;99.90;;;;;;5032494;28;20088;-73
2021/11/24 05:27:09;;;;;;;17.52;9.27;;;-1.80;99.90;;;;;;5033990;28;20047;-72
2021/11/24 05:29:35;;;;;;;11.05;9.65;;;-1.80;99.90;;;;;;5033676;28;20037;-73
2021/11/24 05:32:00;;;;;;;11.13;9.88;;;-1.90;99.90;;;;;;5033930;28;20021;-73
2021/11/24 05:34:26;;;;;;;14.65;9.93;;;-1.90;99.90;;;;;;5033528;28;20033;-74
2021/11/24 05:36:51;;;;;;;19.73;9.63;;;-1.90;99.90;;;;;;5037175;28;20041;-73
2021/11/24 05:39:17;;;;;;;16.65;11.15;;;-1.90;99.90;;;;;;5049522;28;20056;-73
2021/11/24 05:41:43;;;;;;;16.92;13.50;;;-1.80;99.90;;;;;;5046984;28;20087;-73
2021/11/24 05:44:23;;;;;;;11.50;10.05;;;-1.90;99.90;;;;;;5033561;28;20017;-73
2021/11/24 05:46:59;;;;;;;14.27;10.35;;;-1.90;99.90;;;;;;5032931;28;20036;-72
2021/11/24 05:49:26;;;;;;;13.30;10.55;;;-1.90;99.90;;;;;;5031919;28;20029;-72
2021/11/24 05:51:56;;;;;;;19.77;10.18;;;-2.00;99.90;;;;;;5033580;28;20060;-72
2021/11/24 05:54:22;;;;;;;12.73;9.98;;;-1.90;99.90;;;;;;5033678;28;20027;-72
2021/11/24 05:56:48;;;;;;;15.35;11.10;;;-1.90;99.90;;;;;;5033672;28;20029;-72
2021/11/24 05:59:15;;;;;;;13.50;9.65;;;-1.80;99.90;;;;;;5034519;28;20044;-74
2021/11/24 06:01:41;;;;;;;20.80;10.88;;;-1.70;99.90;;;;;;5033477;28;20056;-73
2021/11/24 06:04:06;;;;;;;16.98;11.27;;;-1.70;99.90;;;;;;5033622;28;20029;-73
2021/11/24 06:06:33;;;;;;;14.48;11.55;;;-1.70;99.90;;;;;;5033926;28;20104;-73
2021/11/24 06:08:58;;;;;;;14.20;10.48;;;-1.80;99.90;;;;;;5035411;28;20033;-73
2021/11/24 06:11:25;;;;;;;21.73;12.70;;;-1.80;99.90;;;;;;5032706;28;20140;-72
2021/11/24 06:13:50;;;;;;;17.50;13.55;;;-1.60;99.90;;;;;;5034636;28;20022;-72
2021/11/24 06:16:16;;;;;;;19.88;13.57;;;-1.50;99.90;;;;;;5033324;28;20064;-73
2021/11/24 06:18:42;;;;;;;22.42;12.60;;;-1.40;99.90;;;;;;5033092;28;20029;-74
2021/11/24 06:21:07;;;;;;;19.40;14.45;;;-1.40;99.90;;;;;;5032858;28;20029;-72
2021/11/24 06:23:38;;;;;;;17.35;14.23;;;-1.30;99.90;;;;;;5032850;28;20068;-72
2021/11/24 06:26:04;;;;;;;;;;;-1.40;99.90;;;;;;5032491;28;20029;-72
2021/11/24 06:28:29;;;;;;;25.05;14.20;;;-1.40;99.90;;;;;;5033138;28;20296;-73
2021/11/24 06:30:55;;;;;;;25.02;14.68;;;-1.40;99.90;;;;;;5036014;28;20026;-73
2021/11/24 06:33:20;;;;;;;20.95;14.23;;;-1.40;99.90;;;;;;5037186;28;20025;-72
2021/11/24 06:35:46;;;;;;;22.13;14.27;;;-1.30;99.90;;;;;;5036226;28;20089;-72
2021/11/24 06:38:11;;;;;;;24.50;14.30;;;-1.50;99.90;;;;;;5034194;28;20028;-72
2021/11/24 06:40:37;;;;;;;27.00;13.85;;;-1.70;99.90;;;;;;5034390;28;20120;-73
2021/11/24 06:43:02;;;;;;;25.13;15.63;;;-1.50;99.90;;;;;;5035392;28;20289;-72
2021/11/24 06:45:28;;;;;;;27.35;16.40;;;-1.60;99.90;;;;;;5033506;28;20078;-73
2021/11/24 06:47:54;;;;;;;27.58;16.60;;;-1.40;99.90;;;;;;5033412;28;20397;-73
2021/11/24 06:50:20;;;;;;;29.48;17.50;;;-1.40;99.90;;;;;;5040446;28;20030;-72
2021/11/24 06:52:45;;;;;;;23.55;15.90;;;-1.50;99.90;;;;;;5046365;28;20018;-72
2021/11/24 06:55:11;;;;;;;28.23;15.82;;;-1.30;99.90;;;;;;5050492;28;20516;-73
2021/11/24 06:57:37;;;;;;;23.80;16.85;;;-1.20;99.90;;;;;;5051849;28;20033;-73
2021/11/24 07:00:07;;;;;;;28.13;16.80;;;-1.20;99.90;;;;;;5051775;28;20401;-73
2021/11/24 07:02:33;;;;;;;25.43;16.63;;;-1.10;99.90;;;;;;5055449;28;20053;-73
2021/11/24 07:04:58;;;;;;;30.55;17.48;;;-1.20;99.90;;;;;;5055977;28;20271;-73
2021/11/24 07:07:24;;;;;;;28.02;17.70;;;-1.30;99.90;;;;;;5056328;28;20040;-73
2021/11/24 07:09:49;;;;;;;26.08;17.05;;;-1.30;99.90;;;;;;5050657;28;20025;-73
2021/11/24 07:12:18;;;;;;;22.77;16.77;;;-1.20;99.90;;;;;;5047517;28;20033;-73
2021/11/24 07:14:44;;;;;;;27.85;17.88;;;-1.00;99.90;;;;;;5043520;28;20045;-72
2021/11/24 07:17:10;;;;;;;23.42;15.60;;;-0.90;99.90;;;;;;5037123;28;20040;-74
2021/11/24 07:19:35;;;;;;;30.98;18.35;;;-0.90;99.90;;;;;;5037627;28;20501;-72
2021/11/24 07:22:01;;;;;;;24.77;16.77;;;-0.70;99.90;;;;;;5038985;28;20064;-72
2021/11/24 07:24:29;;;;;;;28.98;18.40;;;-0.60;99.90;;;;;;5038487;28;20033;-73
2021/11/24 07:26:54;;;;;;;26.95;16.48;;;-0.50;99.90;;;;;;5038022;28;20114;-72
2021/11/24 07:29:21;;;;;;;23.13;15.63;;;-0.30;99.90;;;;;;5037880;28;20068;-73
2021/11/24 07:31:47;;;;;;;25.63;18.17;;;-0.10;99.90;;;;;;5037175;28;20018;-74
2021/11/24 07:34:13;;;;;;;28.92;16.42;;;-0.10;99.90;;;;;;5037670;28;20028;-72
2021/11/24 07:36:39;;;;;;;23.50;15.80;;;0.00;99.90;;;;;;5036018;28;20040;-72
2021/11/24 07:39:05;;;;;;;27.73;17.23;;;0.10;99.90;;;;;;5037697;28;20037;-72
2021/11/24 07:41:31;;;;;;;27.65;17.00;;;0.10;99.90;;;;;;5037824;28;20025;-72
2021/11/24 07:43:56;;;;;;;21.92;16.05;;;0.20;99.90;;;;;;5052038;28;20037;-73
2021/11/24 07:46:22;;;;;;;26.58;16.52;;;0.20;99.90;;;;;;5036019;28;20515;-74
2021/11/24 07:48:48;;;;;;;23.92;15.88;;;0.30;99.90;;;;;;5035865;28;20434;-73
2021/11/24 07:51:17;;;;;;;24.23;16.83;;;0.20;99.90;;;;;;5037114;28;20102;-72
2021/11/24 07:53:44;;;;;;;20.48;14.90;;;0.30;99.90;;;;;;5036608;28;20018;-72
2021/11/24 07:56:10;;;;;;;22.00;14.80;;;0.60;99.90;;;;;;5036935;28;20044;-73
2021/11/24 07:58:35;;;;;;;22.85;14.88;;;0.60;99.90;;;;;;5035053;28;20497;-73
2021/11/24 08:01:01;;;;;;;23.50;15.77;;;0.80;99.90;;;;;;5035228;28;20113;-73
2021/11/24 08:03:26;;;;;;;21.27;15.20;;;0.90;99.90;;;;;;5037895;28;20025;-73
2021/11/24 08:05:52;;;;;;;22.00;15.20;;;1.00;99.90;;;;;;5041698;28;20524;-75
2021/11/24 08:08:17;;;;;;;22.38;15.73;;;1.00;99.90;;;;;;5050109;28;20114;-73
2021/11/24 08:10:43;;;;;;;23.88;16.95;;;0.90;99.90;;;;;;5038554;28;20053;-73
2021/11/24 08:13:09;;;;;;;23.45;16.17;;;0.80;99.90;;;;;;5037350;28;20029;-74
2021/11/24 08:15:34;;;;;;;20.20;16.15;;;0.90;99.90;;;;;;5037423;28;20036;-72
2021/11/24 08:18:00;;;;;;;21.05;15.95;;;1.20;99.90;;;;;;5038837;28;20084;-72
2021/11/24 08:20:25;;;;;;;19.45;14.52;;;1.20;99.90;;;;;;5037335;28;20519;-73
2021/11/24 08:22:51;;;;;;;23.13;15.70;;;1.10;99.90;;;;;;5036942;28;20466;-73
2021/11/24 08:25:16;;;;;;;19.02;14.00;;;1.20;99.90;;;;;;5038283;28;20079;-73
2021/11/24 08:27:42;;;;;;;22.50;14.63;;;1.20;99.90;;;;;;5039533;28;20025;-73
2021/11/24 08:30:09;;;;;;;20.80;15.40;;;1.20;99.90;;;;;;5037822;28;20477;-73
2021/11/24 08:32:35;;;;;;;21.65;16.08;;;1.30;99.90;;;;;;5036943;28;20040;-73
2021/11/24 08:35:01;;;;;;;20.98;14.05;;;1.30;99.90;;;;;;5036688;28;20025;-74
2021/11/24 08:37:27;;;;;;;19.50;15.10;;;1.50;99.90;;;;;;5048691;28;20025;-73
2021/11/24 08:39:52;;;;;;;19.40;14.85;;;1.80;99.90;;;;;;5053616;28;20044;-72
2021/11/24 08:42:18;;;;;;;20.40;15.23;;;1.80;99.90;;;;;;5052665;28;20072;-72
2021/11/24 08:44:44;;;;;;;18.33;15.00;;;1.80;99.90;;;;;;5055448;28;20031;-72
2021/11/24 08:47:10;;;;;;;20.33;13.88;;;1.80;99.90;;;;;;5051687;28;20025;-73
2021/11/24 08:49:35;;;;;;;18.48;14.63;;;1.80;99.90;;;;;;5051809;28;20079;-73
2021/11/24 08:52:02;;;;;;;18.77;14.75;;;1.90;99.90;;;;;;5055025;28;20041;-73
2021/11/24 08:54:27;;;;;;;19.27;14.77;;;2.20;99.90;;;;;;5055441;28;20022;-73
2021/11/24 08:56:53;;;;;;;21.67;14.32;;;2.20;99.90;;;;;;5055572;28;20033;-73
2021/11/24 08:59:20;;;;;;;19.88;14.68;;;2.50;99.90;;;;;;5056147;28;20024;-73
2021/11/24 09:01:46;;;;;;;20.10;14.48;;;2.70;99.90;;;;;;5055033;28;20060;-73
2021/11/24 09:04:11;;;;;;;19.52;14.48;;;2.70;99.90;;;;;;5053242;28;20081;-72
2021/11/24 09:06:37;;;;;;;17.02;13.73;;;2.80;99.90;;;;;;5051447;28;20029;-73
2021/11/24 09:09:05;;;;;;;18.17;14.13;;;2.90;99.90;;;;;;5045279;28;20051;-75
2021/11/24 09:11:30;;;;;;;21.58;14.82;;;3.00;99.90;;;;;;5038261;28;20029;-73
2021/11/24 09:13:56;;;;;;;17.60;13.90;;;2.90;99.90;;;;;;5036592;28;20022;-73
2021/11/24 09:16:22;;;;;;;16.90;13.50;;;3.10;99.90;;;;;;5039866;28;20036;-73
2021/11/24 09:18:47;;;;;;;18.52;14.60;;;3.10;99.90;;;;;;5039996;28;20064;-73
2021/11/24 09:21:13;;;;;;;16.25;13.02;;;3.20;99.90;;;;;;5041151;28;20500;-71
2021/11/24 09:23:39;;;;;;;17.38;13.73;;;3.20;99.90;;;;;;5037918;28;20064;-73
2021/11/24 09:26:27;;;;;;;19.30;13.88;;;3.30;99.90;;;;;;5037407;28;20033;-73
2021/11/24 09:28:53;;;;;;;19.08;13.82;;;3.20;99.90;;;;;;5037674;28;20033;-74
2021/11/24 09:31:19;;;;;;;22.02;14.07;;;3.30;99.90;;;;;;5038346;28;20079;-73
2021/11/24 09:33:46;;;;;;;16.95;13.07;;;3.30;99.90;;;;;;5034593;28;20026;-74
2021/11/24 09:36:12;;;;;;;16.75;12.95;;;3.30;99.90;;;;;;5035355;28;20087;-73
2021/11/24 09:38:39;;;;;;;18.45;13.65;;;3.30;99.90;;;;;;5037108;28;20026;-73
2021/11/24 09:41:07;;;;;;;15.68;12.73;;;3.20;99.90;;;;;;5038646;28;20390;-73
2021/11/24 09:43:36;;;;;;;16.55;13.70;;;3.20;99.90;;;;;;5038042;28;20022;-73
2021/11/24 09:46:04;;;;;;;19.33;13.60;;;3.10;99.90;;;;;;5035821;28;20071;-73
2021/11/24 09:48:30;;;;;;;18.35;13.60;;;3.10;99.90;;;;;;5037660;28;20029;-73
2021/11/24 09:50:56;;;;;;;17.40;14.35;;;3.10;99.90;;;;;;5042367;28;20037;-73
2021/11/24 09:53:23;;;;;;;17.70;13.57;;;3.10;99.90;;;;;;5039819;28;20021;-73
2021/11/24 09:55:49;;;;;;;16.13;13.73;;;3.20;99.90;;;;;;5034597;28;20021;-73
2021/11/24 09:58:15;;;;;;;15.18;12.60;;;3.30;99.90;;;;;;5034240;28;20033;-73
2021/11/24 10:00:42;;;;;;;16.50;13.63;;;3.40;99.90;;;;;;5034340;28;20022;-73
2021/11/24 10:03:10;;;;;;;17.42;14.50;;;3.40;99.90;;;;;;5035345;28;20029;-73
2021/11/24 10:05:36;;;;;;;19.02;13.70;;;3.40;99.90;;;;;;5034131;28;20029;-73
2021/11/24 10:08:03;;;;;;;16.95;13.60;;;3.40;99.90;;;;;;5035374;28;20029;-73
2021/11/24 10:10:29;;;;;;;18.00;13.38;;;3.40;99.90;;;;;;5035299;28;20053;-73
2021/11/24 10:12:55;;;;;;;17.45;13.40;;;3.40;99.90;;;;;;5035131;28;20044;-75
2021/11/24 10:15:49;;;;;;;17.23;12.90;;;3.40;99.90;;;;;;5058673;22;20041;-80
2021/11/24 10:18:19;;;;;;;16.27;13.98;;;3.60;99.90;;;;;;5037606;28;20128;-79
2021/11/24 10:20:58;;;;;;;16.80;13.25;;;3.80;99.90;;;;;;5040702;28;20044;-80
2021/11/24 10:23:32;;;;;;;17.98;13.10;;;4.00;99.90;;;;;;5041224;28;20029;-79
2021/11/24 10:26:37;;;;;;;17.67;13.60;;;4.20;99.90;;;;;;5041152;28;20024;-80
2021/11/24 10:29:10;;;;;;;15.65;12.15;;;4.30;99.90;;;;;;5040445;28;20038;-80
2021/11/24 10:31:42;;;;;;;14.57;12.57;;;4.30;99.90;;;;;;5040377;28;20107;-80
2021/11/24 10:34:28;;;;;;;14.63;11.65;;;4.20;99.90;;;;;;5041919;28;20036;-80
2021/11/24 10:37:04;;;;;;;14.75;11.65;;;4.20;99.90;;;;;;5040987;28;20040;-80
2021/11/24 10:39:34;;;;;;;15.30;12.30;;;4.30;99.90;;;;;;5040031;28;20021;-78
2021/11/24 10:42:04;;;;;;;14.73;11.15;;;4.20;99.90;;;;;;5038839;28;20026;-82
2021/11/24 10:44:31;;;;;;;13.57;11.77;;;4.20;99.90;;;;;;5041629;28;20381;-79
2021/11/24 10:46:59;;;;;;;15.82;11.32;;;4.20;99.90;;;;;;5041586;28;20024;-79
2021/11/24 10:49:50;;;;;;;16.00;11.85;;;4.30;99.90;;;;;;5046000;28;20029;-80
2021/11/24 10:52:22;;;;;;;14.90;11.13;;;4.30;99.90;;;;;;5043513;28;20017;-79
2021/11/24 10:54:55;;;;;;;13.80;11.48;;;4.30;99.90;;;;;;5046931;28;20025;-80
2021/11/24 10:57:21;;;;;;;14.40;11.63;;;4.40;99.90;;;;;;5040795;28;20030;-80
2021/11/24 10:59:47;;;;;;;15.35;10.68;;;4.50;99.90;;;;;;5041123;28;20040;-79
2021/11/24 11:02:22;;;;;;;14.88;11.65;;;4.40;99.90;;;;;;5041903;28;20386;-79
2021/11/24 11:04:55;;;;;;;13.95;10.95;;;4.30;99.90;;;;;;5040402;28;20033;-81
2021/11/24 11:07:21;;;;;;;14.18;11.98;;;4.20;99.90;;;;;;5053794;28;20036;-80
2021/11/24 11:09:47;;;;;;;15.20;13.07;;;4.20;99.90;;;;;;5057050;28;20053;-79
2021/11/24 11:12:12;;;;;;;13.88;11.60;;;4.10;99.90;;;;;;5040239;28;20061;-80
2021/11/24 11:14:39;;;;;;;13.45;11.57;;;4.00;99.90;;;;;;5040611;28;20021;-78
2021/11/24 11:17:04;;;;;;;20.50;11.98;;;4.00;99.90;;;;;;5039275;28;20026;-79
2021/11/24 11:19:37;;;;;;;14.73;12.60;;;4.00;99.90;;;;;;5039293;28;20030;-79
2021/11/24 11:22:04;;;;;;;16.17;11.93;;;4.10;99.90;;;;;;5040200;28;20085;-80
2021/11/24 11:24:29;;;;;;;16.75;12.48;;;4.10;99.90;;;;;;5040032;28;20030;-79
2021/11/24 11:26:55;;;;;;;16.20;12.30;;;4.10;99.90;;;;;;5039293;28;20033;-81
2021/11/24 11:29:21;;;;;;;13.57;11.43;;;4.10;99.90;;;;;;5041212;28;20033;-79
2021/11/24 11:31:48;;;;;;;16.27;12.63;;;4.10;99.90;;;;;;5040752;28;20029;-79
2021/11/24 11:34:14;;;;;;;13.68;11.45;;;4.00;99.90;;;;;;5041019;28;20029;-80
2021/11/24 11:36:43;;;;;;;15.10;12.32;;;4.00;99.90;;;;;;5041916;28;20022;-80
2021/11/24 11:39:09;;;;;;;14.55;12.70;;;4.10;99.90;;;;;;5041158;28;20022;-79
2021/11/24 11:41:37;;;;;;;17.55;10.85;;;4.30;99.90;;;;;;5040873;28;20041;-80
2021/11/24 11:44:04;;;;;;;11.88;10.18;;;4.40;99.90;;;;;;5040442;28;20037;-80
2021/11/24 11:46:33;;;;;;;12.80;11.40;;;4.50;99.90;;;;;;5048005;28;20040;-80
2021/11/24 11:49:07;;;;;;;12.57;10.77;;;4.50;99.90;;;;;;5054937;28;20006;-80
2021/11/24 11:51:37;;;;;;;14.52;11.18;;;4.50;99.90;;;;;;5055417;28;20006;-81
2021/11/24 11:54:04;;;;;;;13.10;9.65;;;4.60;99.90;;;;;;5056462;28;20073;-78
2021/11/24 11:56:38;;;;;;;14.20;11.48;;;4.70;99.90;;;;;;5055428;28;20013;-79
2021/11/24 11:59:19;;;;;;;14.23;11.45;;;4.80;99.90;;;;;;5054159;28;20206;-78
2021/11/24 12:01:49;;;;;;;13.57;11.63;;;4.90;99.90;;;;;;5052727;28;20032;-78
2021/11/24 12:04:22;;;;;;;14.40;11.75;;;4.90;99.90;;;;;;5053440;28;20133;-79
2021/11/24 12:07:06;;;;;;;15.05;11.23;;;4.90;99.90;;;;;;5049868;28;20081;-82
2021/11/24 12:09:54;;;;;;;15.40;11.65;;;5.00;99.90;;;;;;5046094;28;20025;-81
2021/11/24 12:12:26;;;;;;;15.10;12.15;;;4.90;99.90;;;;;;5043292;28;20017;-79
2021/11/24 12:15:06;;;;;;;13.45;11.77;;;5.00;99.90;;;;;;5043545;28;20022;-79
2021/11/24 12:17:45;;;;;;;15.13;11.45;;;5.10;99.90;;;;;;5043371;28;20021;-80
2021/11/24 12:20:14;;;;;;;16.45;11.50;;;5.10;99.90;;;;;;5049601;28;20022;-78
2021/11/24 12:22:47;;;;;;;17.67;11.50;;;5.10;99.90;;;;;;5050734;28;20022;-79
2021/11/24 12:25:23;;;;;;;14.65;11.70;;;5.10;99.90;;;;;;5053129;28;20311;-78
2021/11/24 12:27:52;;;;;;;17.25;11.98;;;5.00;99.90;;;;;;5052365;28;20022;-80
2021/11/24 12:30:50;;;;;;;15.20;11.43;;;5.10;99.90;;;;;;5046462;28;20014;-80
2021/11/24 12:33:18;;;;;;;13.25;10.38;;;5.30;99.90;;;;;;5049289;28;20018;-78